Time;durP1;ratioP1;P1;durP2;ratioP2;P2;SDS_P1;SDS_P2;PMS_P1;PMS_P2;Temp;Humidity;BMP_temperature;BMP_pressure;BME280_temperature;BME280_humidity;BME280_pressure;Samples;Min_cycle;Max_cycle;Signal;HPM_P1;HPM_P2
2022/09/13 00:00:07;;;;;;;16.13;12.75;;;17.90;99.90;;;;;;4986907;28;20069;-73
2022/09/13 00:02:33;;;;;;;16.88;12.50;;;18.00;99.90;;;;;;4987824;28;20039;-74
2022/09/13 00:04:59;;;;;;;15.13;12.07;;;17.90;99.90;;;;;;4987530;28;20379;-74
2022/09/13 00:07:24;;;;;;;15.07;11.40;;;17.80;99.90;;;;;;4980554;28;20106;-74
2022/09/13 00:09:50;;;;;;;13.30;10.98;;;17.80;99.90;;;;;;4984687;28;20197;-74
2022/09/13 00:12:15;;;;;;;13.30;10.65;;;17.70;99.90;;;;;;4974162;28;20046;-74
2022/09/13 00:14:41;;;;;;;15.82;10.50;;;17.70;99.90;;;;;;4989086;28;20062;-74
2022/09/13 00:17:07;;;;;;;13.52;10.68;;;17.70;99.90;;;;;;4987718;28;20056;-74
2022/09/13 00:19:32;;;;;;;15.02;11.20;;;17.60;99.90;;;;;;4983027;28;20459;-75
2022/09/13 00:21:58;;;;;;;14.95;11.10;;;17.60;99.90;;;;;;4979630;28;20053;-75
2022/09/13 00:24:24;;;;;;;12.82;10.73;;;17.50;99.90;;;;;;4983981;28;20202;-75
2022/09/13 00:26:50;;;;;;;14.60;11.32;;;17.50;99.90;;;;;;4981325;28;20518;-75
2022/09/13 00:29:15;;;;;;;15.55;11.63;;;17.60;99.90;;;;;;4985369;28;20112;-75
2022/09/13 00:31:41;;;;;;;16.70;11.75;;;17.60;99.90;;;;;;4986478;28;20117;-75
2022/09/13 00:34:06;;;;;;;12.70;11.25;;;17.60;99.90;;;;;;4980895;28;20074;-75
2022/09/13 00:36:32;;;;;;;15.88;12.48;;;17.60;99.90;;;;;;4987829;28;20120;-75
2022/09/13 00:38:59;;;;;;;15.52;12.27;;;17.60;99.90;;;;;;4980271;28;20066;-75
2022/09/13 00:41:25;;;;;;;13.75;12.18;;;17.60;99.90;;;;;;4984178;28;20893;-75
2022/09/13 00:43:56;;;;;;;13.20;11.88;;;17.60;99.90;;;;;;4985596;28;20069;-75
2022/09/13 00:46:25;;;;;;;13.63;11.25;;;17.60;99.90;;;;;;4988858;28;20046;-75
2022/09/13 00:48:56;;;;;;;13.65;11.38;;;17.60;99.90;;;;;;4982676;28;20035;-75
2022/09/13 00:51:23;;;;;;;15.18;12.07;;;17.70;99.90;;;;;;4982824;28;20076;-75
2022/09/13 00:53:54;;;;;;;17.65;11.70;;;17.70;99.90;;;;;;4985495;28;20053;-75
2022/09/13 00:56:40;;;;;;;16.15;12.35;;;17.70;99.90;;;;;;4981644;28;20042;-76
2022/09/13 00:59:12;;;;;;;13.18;11.48;;;17.70;99.90;;;;;;4982439;28;20039;-75
2022/09/13 01:01:43;;;;;;;16.02;12.18;;;17.70;99.90;;;;;;4987928;28;20042;-75
2022/09/13 01:04:10;;;;;;;16.23;12.30;;;17.70;99.90;;;;;;4991362;28;20061;-75
2022/09/13 01:06:38;;;;;;;13.30;11.98;;;17.70;99.90;;;;;;4982709;28;20294;-75
2022/09/13 01:09:05;;;;;;;16.20;12.00;;;17.70;99.90;;;;;;4981325;28;20045;-75
2022/09/13 01:11:49;;;;;;;13.75;11.55;;;17.70;99.90;;;;;;4986822;28;20042;-75
2022/09/13 01:14:19;;;;;;;13.13;11.73;;;17.70;99.90;;;;;;4987965;28;20060;-75
2022/09/13 01:16:45;;;;;;;14.32;12.18;;;17.70;99.90;;;;;;4983480;28;20041;-75
2022/09/13 01:19:11;;;;;;;13.38;12.07;;;17.70;99.90;;;;;;4986212;28;20443;-75
2022/09/13 01:22:01;;;;;;;16.17;13.77;;;17.70;99.90;;;;;;4986367;28;20130;-75
2022/09/13 01:25:05;;;;;;;19.52;13.98;;;17.80;99.90;;;;;;4987607;28;20139;-75
2022/09/13 01:27:45;;;;;;;20.52;16.30;;;17.70;99.90;;;;;;4989831;28;20057;-75
2022/09/13 01:30:21;;;;;;;19.17;15.35;;;17.70;99.90;;;;;;4992499;28;20097;-75
2022/09/13 01:32:47;;;;;;;19.13;16.45;;;17.70;99.90;;;;;;4990353;28;20048;-75
2022/09/13 01:35:40;;;;;;;22.15;17.67;;;17.70;99.90;;;;;;4988276;28;20133;-75
2022/09/13 01:38:25;;;;;;;25.55;16.95;;;17.70;99.90;;;;;;4987353;28;20042;-75
2022/09/13 01:41:08;;;;;;;18.27;15.73;;;17.70;99.90;;;;;;4987434;28;20144;-75
2022/09/13 01:43:54;;;;;;;17.17;15.20;;;17.70;99.90;;;;;;4987927;28;20126;-75
2022/09/13 01:46:29;;;;;;;15.73;14.02;;;17.70;99.90;;;;;;4967728;28;20042;-75
2022/09/13 01:49:10;;;;;;;17.65;15.13;;;17.70;99.90;;;;;;4986172;28;20042;-75
2022/09/13 01:51:45;;;;;;;16.45;14.75;;;17.70;99.90;;;;;;4981842;28;20038;-75
2022/09/13 01:54:20;;;;;;;18.40;14.38;;;17.70;99.90;;;;;;4995203;28;20048;-75
2022/09/13 01:57:18;;;;;;;17.25;14.90;;;17.70;99.90;;;;;;4992815;28;20030;-75
2022/09/13 01:59:52;;;;;;;19.98;16.33;;;17.70;99.90;;;;;;4982527;28;20042;-74
2022/09/13 02:02:50;;;;;;;21.23;18.13;;;17.80;99.90;;;;;;4976392;28;20042;-74
2022/09/13 02:05:41;;;;;;;20.15;17.20;;;17.70;99.90;;;;;;4977718;28;20054;-74
2022/09/13 02:08:41;;;;;;;23.00;18.35;;;17.70;99.90;;;;;;4979639;28;20046;-74
2022/09/13 02:11:10;;;;;;;23.02;18.13;;;17.70;99.90;;;;;;4958937;28;20109;-74
2022/09/13 02:13:41;;;;;;;24.95;19.73;;;17.70;99.90;;;;;;4987452;28;20192;-74
2022/09/13 02:16:26;;;;;;;22.58;18.45;;;17.70;99.90;;;;;;4986814;28;20075;-74
2022/09/13 02:18:57;;;;;;;22.02;18.55;;;17.70;99.90;;;;;;4986870;28;20104;-74
2022/09/13 02:21:29;;;;;;;24.55;19.05;;;17.70;99.90;;;;;;4986509;28;20046;-74
2022/09/13 02:24:02;;;;;;;23.75;18.50;;;17.70;99.90;;;;;;4986340;28;20042;-74
2022/09/13 02:26:30;;;;;;;24.00;18.50;;;17.70;99.90;;;;;;4985040;28;20380;-74
2022/09/13 02:28:59;;;;;;;24.35;19.55;;;17.70;99.90;;;;;;4985939;28;20402;-74
2022/09/13 02:31:33;;;;;;;22.30;17.55;;;17.60;99.90;;;;;;4987104;28;20402;-74
2022/09/13 02:34:03;;;;;;;28.92;19.65;;;17.60;99.90;;;;;;4989478;28;20482;-74
2022/09/13 02:36:34;;;;;;;26.83;19.48;;;17.60;99.90;;;;;;4985669;28;20034;-76
2022/09/13 02:39:03;;;;;;;25.33;19.83;;;17.50;99.90;;;;;;4983742;28;20402;-75
2022/09/13 02:41:57;;;;;;;30.20;19.63;;;17.50;99.90;;;;;;4989611;28;20572;-75
2022/09/13 02:44:41;;;;;;;29.52;21.70;;;17.50;99.90;;;;;;5007293;28;20057;-75
2022/09/13 02:47:21;;;;;;;33.95;23.55;;;17.50;99.90;;;;;;4985677;28;20499;-75
2022/09/13 02:49:57;;;;;;;32.85;23.77;;;17.50;99.90;;;;;;4989460;28;20438;-75
2022/09/13 02:52:51;;;;;;;35.35;23.50;;;17.50;99.90;;;;;;4991374;28;20954;-76
2022/09/13 02:55:42;;;;;;;37.25;25.02;;;17.50;99.90;;;;;;4988123;28;20491;-75
2022/09/13 02:58:24;;;;;;;33.13;24.05;;;17.60;99.90;;;;;;4988482;28;22551;-77
2022/09/13 03:00:50;;;;;;;30.70;23.27;;;17.50;99.90;;;;;;4990207;28;20817;-78
2022/09/13 03:03:16;;;;;;;30.35;23.02;;;17.60;99.90;;;;;;4990473;28;20042;-75
2022/09/13 03:05:43;;;;;;;30.42;23.48;;;17.50;99.90;;;;;;4989104;28;20072;-74
2022/09/13 03:08:11;;;;;;;32.67;23.95;;;17.60;99.90;;;;;;4986834;28;20419;-74
2022/09/13 03:10:58;;;;;;;30.05;22.48;;;17.50;99.90;;;;;;4985873;28;20042;-76
2022/09/13 03:13:42;;;;;;;30.30;21.83;;;17.50;99.90;;;;;;4986119;28;20042;-74
2022/09/13 03:16:44;;;;;;;30.08;22.48;;;17.50;99.90;;;;;;4988747;28;20082;-75
2022/09/13 03:19:15;;;;;;;30.05;20.48;;;17.50;99.90;;;;;;4949009;28;20050;-75
2022/09/13 03:22:01;;;;;;;28.13;20.05;;;17.50;99.90;;;;;;4989419;28;20101;-75
2022/09/13 03:24:50;;;;;;;27.58;18.55;;;17.60;99.90;;;;;;4989360;28;20124;-77
2022/09/13 03:27:28;;;;;;;30.70;19.35;;;17.60;99.90;;;;;;4987619;28;20057;-75
2022/09/13 03:30:01;;;;;;;28.08;18.73;;;17.60;99.90;;;;;;4985135;28;20034;-76
2022/09/13 03:32:43;;;;;;;27.88;19.23;;;17.60;99.90;;;;;;4986205;28;20050;-75
2022/09/13 03:35:36;;;;;;;28.88;17.83;;;17.60;99.90;;;;;;4985921;28;20497;-75
2022/09/13 03:38:29;;;;;;;24.98;17.98;;;17.70;99.90;;;;;;4983944;28;20041;-75
2022/09/13 03:41:09;;;;;;;23.02;17.15;;;17.60;99.90;;;;;;4986056;28;20046;-74
2022/09/13 03:43:50;;;;;;;25.02;17.65;;;17.70;99.90;;;;;;4970700;28;20048;-75
2022/09/13 03:46:37;;;;;;;21.42;16.83;;;17.70;99.90;;;;;;4989136;28;20410;-75
2022/09/13 03:49:07;;;;;;;22.67;16.50;;;17.70;99.90;;;;;;4987513;28;20039;-74
2022/09/13 03:51:34;;;;;;;22.05;15.85;;;17.60;99.90;;;;;;4987414;28;20046;-75
2022/09/13 03:54:07;;;;;;;21.60;15.77;;;17.70;99.90;;;;;;4992264;28;20066;-76
2022/09/13 03:56:33;;;;;;;20.42;14.45;;;17.70;99.90;;;;;;4985273;28;20046;-74
2022/09/13 03:58:58;;;;;;;22.40;15.73;;;17.70;99.90;;;;;;4983463;28;20049;-75
2022/09/13 04:01:24;;;;;;;19.75;14.93;;;17.70;99.90;;;;;;4985291;28;20035;-74
2022/09/13 04:03:50;;;;;;;24.05;16.00;;;17.70;99.90;;;;;;4987339;28;20053;-74
2022/09/13 04:06:16;;;;;;;19.98;14.80;;;17.80;99.90;;;;;;4986352;28;20038;-74
2022/09/13 04:08:43;;;;;;;20.95;14.98;;;17.70;99.90;;;;;;4982628;28;20046;-74
2022/09/13 04:11:09;;;;;;;22.42;15.82;;;17.80;99.90;;;;;;4987841;28;20034;-76
2022/09/13 04:13:36;;;;;;;23.70;16.52;;;17.80;99.90;;;;;;4983852;28;20078;-77
2022/09/13 04:16:03;;;;;;;26.90;16.13;;;17.80;99.90;;;;;;4982374;28;20046;-76
2022/09/13 04:18:30;;;;;;;20.50;16.23;;;17.80;99.90;;;;;;4978793;28;20039;-74
2022/09/13 04:20:57;;;;;;;23.30;17.58;;;17.80;99.90;;;;;;4989732;28;20097;-74
2022/09/13 04:23:24;;;;;;;25.13;17.60;;;17.80;99.90;;;;;;4981851;28;20046;-76
2022/09/13 04:25:50;;;;;;;27.95;18.25;;;17.80;99.90;;;;;;4970223;28;20069;-74
2022/09/13 04:28:20;;;;;;;21.70;17.58;;;17.80;99.90;;;;;;4983360;28;20038;-74
2022/09/13 04:30:47;;;;;;;25.73;17.98;;;17.80;99.90;;;;;;4987402;28;20039;-74
2022/09/13 04:33:14;;;;;;;24.83;16.95;;;17.80;99.90;;;;;;4984670;28;20133;-74
2022/09/13 04:35:40;;;;;;;24.27;17.73;;;17.80;99.90;;;;;;4985495;28;20053;-75
2022/09/13 04:38:06;;;;;;;20.42;16.88;;;17.80;99.90;;;;;;4967643;28;20035;-76
2022/09/13 04:40:33;;;;;;;21.25;16.00;;;17.80;99.90;;;;;;4984255;28;20034;-75
2022/09/13 04:43:00;;;;;;;23.77;17.15;;;17.80;99.90;;;;;;4986547;28;20034;-75
2022/09/13 04:45:26;;;;;;;22.80;16.83;;;17.80;99.90;;;;;;4981020;28;20041;-75
2022/09/13 04:47:52;;;;;;;23.52;17.33;;;17.80;99.90;;;;;;4972848;28;20038;-75
2022/09/13 04:50:23;;;;;;;24.08;17.52;;;17.90;99.90;;;;;;4983930;28;20082;-75
2022/09/13 04:52:49;;;;;;;28.58;18.15;;;17.90;99.90;;;;;;4980678;28;20502;-75
2022/09/13 04:55:15;;;;;;;25.67;17.73;;;17.90;99.90;;;;;;4984546;28;20042;-75
2022/09/13 04:57:41;;;;;;;23.20;17.48;;;17.90;99.90;;;;;;4985392;28;20034;-75
2022/09/13 05:00:08;;;;;;;22.75;17.17;;;17.90;99.90;;;;;;4986261;28;20148;-75
2022/09/13 05:02:34;;;;;;;24.33;17.73;;;17.90;99.90;;;;;;4980378;28;20038;-75
2022/09/13 05:05:00;;;;;;;22.15;17.08;;;17.90;99.90;;;;;;4983931;28;20093;-75
2022/09/13 05:07:26;;;;;;;19.48;16.13;;;18.00;99.90;;;;;;4982183;28;20092;-75
2022/09/13 05:09:52;;;;;;;20.75;16.13;;;18.00;99.90;;;;;;4983202;28;20046;-75
2022/09/13 05:12:17;;;;;;;21.38;17.33;;;18.00;99.90;;;;;;4987849;28;20136;-75
2022/09/13 05:14:43;;;;;;;24.70;16.27;;;18.00;99.90;;;;;;4966407;28;20133;-75
2022/09/13 05:17:09;;;;;;;21.30;16.52;;;18.00;99.90;;;;;;4985177;28;20184;-74
2022/09/13 05:19:34;;;;;;;19.88;14.85;;;18.10;99.90;;;;;;4983558;28;20444;-75
2022/09/13 05:22:01;;;;;;;18.02;14.45;;;18.10;99.90;;;;;;4981186;28;20415;-75
2022/09/13 05:24:26;;;;;;;18.40;12.68;;;18.10;99.90;;;;;;4986161;28;20038;-75
2022/09/13 05:26:53;;;;;;;14.75;12.65;;;18.10;99.90;;;;;;4966637;28;20135;-74
2022/09/13 05:29:18;;;;;;;17.65;12.75;;;18.10;99.90;;;;;;4970346;28;20102;-74
2022/09/13 05:31:44;;;;;;;16.38;13.48;;;18.10;99.90;;;;;;4981843;28;20096;-75
2022/09/13 05:34:13;;;;;;;16.05;13.45;;;18.20;99.90;;;;;;4982380;28;20104;-75
2022/09/13 05:36:39;;;;;;;14.73;12.30;;;18.10;99.90;;;;;;4984928;28;20030;-75
2022/09/13 05:39:06;;;;;;;14.55;12.60;;;18.20;99.90;;;;;;4981056;28;20038;-75
2022/09/13 05:41:32;;;;;;;13.10;11.75;;;18.20;99.90;;;;;;4982015;28;20039;-75
2022/09/13 05:43:58;;;;;;;14.27;11.43;;;18.20;99.90;;;;;;4979796;28;20069;-75
2022/09/13 05:46:24;;;;;;;13.57;11.23;;;18.20;99.90;;;;;;4977551;28;20046;-74
2022/09/13 05:48:49;;;;;;;15.77;12.25;;;18.20;99.90;;;;;;4956347;28;20046;-73
2022/09/13 05:51:22;;;;;;;16.40;11.93;;;18.20;99.90;;;;;;4978740;28;20065;-73
2022/09/13 05:53:50;;;;;;;13.60;11.43;;;18.30;99.90;;;;;;4985879;28;20498;-74
2022/09/13 05:56:18;;;;;;;14.85;10.93;;;18.30;99.90;;;;;;4980491;28;20097;-74
2022/09/13 05:58:47;;;;;;;12.45;10.80;;;18.30;99.90;;;;;;4978069;28;20042;-74
2022/09/13 06:01:14;;;;;;;13.07;11.10;;;18.30;99.90;;;;;;4963850;28;20040;-74
2022/09/13 06:03:40;;;;;;;13.43;10.70;;;18.30;99.90;;;;;;4986494;28;20089;-74
2022/09/13 06:06:07;;;;;;;12.30;9.70;;;18.30;99.90;;;;;;4978190;28;20053;-74
2022/09/13 06:08:34;;;;;;;12.48;8.80;;;18.30;99.90;;;;;;4978334;28;20046;-74
2022/09/13 06:11:04;;;;;;;16.42;8.27;;;18.30;99.90;;;;;;4986485;28;20677;-74
2022/09/13 06:13:30;;;;;;;11.25;8.10;;;18.40;99.90;;;;;;4986988;28;20623;-74
2022/09/13 06:15:58;;;;;;;10.00;6.40;;;18.30;99.90;;;;;;4984759;28;20038;-74
2022/09/13 06:18:24;;;;;;;9.68;6.13;;;18.40;99.90;;;;;;4985254;28;20043;-74
2022/09/13 06:20:56;;;;;;;10.48;6.25;;;18.30;99.90;;;;;;4981886;28;20116;-74
2022/09/13 06:23:21;;;;;;;8.27;4.53;;;18.40;99.90;;;;;;4979741;28;20038;-74
2022/09/13 06:25:47;;;;;;;8.68;4.57;;;18.30;99.90;;;;;;4978719;28;20061;-74
2022/09/13 06:28:12;;;;;;;10.02;4.60;;;18.40;99.90;;;;;;4964929;28;20522;-74
2022/09/13 06:30:38;;;;;;;11.73;4.50;;;18.30;99.90;;;;;;4982120;28;20503;-74
2022/09/13 06:33:04;;;;;;;11.80;3.50;;;18.30;99.90;;;;;;4979106;28;20030;-74
2022/09/13 06:35:29;;;;;;;7.40;3.90;;;18.30;99.90;;;;;;4979620;28;20448;-74
2022/09/13 06:37:56;;;;;;;6.18;3.38;;;18.30;99.90;;;;;;4984933;28;20438;-74
2022/09/13 06:40:22;;;;;;;5.95;2.90;;;18.30;99.90;;;;;;4981184;28;20093;-74
2022/09/13 06:42:48;;;;;;;6.13;3.05;;;18.30;99.90;;;;;;4979242;28;20448;-74
2022/09/13 06:45:13;;;;;;;5.20;3.08;;;18.30;99.90;;;;;;4958525;28;20447;-74
2022/09/13 06:47:39;;;;;;;6.15;3.20;;;18.30;99.90;;;;;;4984116;28;20414;-74
2022/09/13 06:50:06;;;;;;;9.45;3.08;;;18.30;99.90;;;;;;4965315;28;20090;-74
2022/09/13 06:52:32;;;;;;;8.23;3.58;;;18.40;99.90;;;;;;4982653;28;20041;-74
2022/09/13 06:54:57;;;;;;;6.65;2.85;;;18.40;99.90;;;;;;4986242;28;20046;-74
2022/09/13 06:57:23;;;;;;;8.40;3.40;;;18.40;99.90;;;;;;4979773;28;20042;-74
2022/09/13 06:59:49;;;;;;;8.75;3.08;;;18.40;99.90;;;;;;4981619;28;20482;-74
2022/09/13 07:02:14;;;;;;;8.65;2.85;;;18.40;99.90;;;;;;4980229;28;20032;-74
2022/09/13 07:04:40;;;;;;;6.35;2.50;;;18.40;99.90;;;;;;4980542;28;20046;-74
2022/09/13 07:07:06;;;;;;;9.38;2.47;;;18.40;99.90;;;;;;4980663;28;20058;-74
2022/09/13 07:09:33;;;;;;;6.82;2.30;;;18.30;99.90;;;;;;4964479;28;20569;-74
2022/09/13 07:11:58;;;;;;;5.78;2.08;;;18.30;99.90;;;;;;4987360;28;20046;-74
2022/09/13 07:14:26;;;;;;;6.85;2.05;;;18.30;99.90;;;;;;4962436;28;20399;-74
2022/09/13 07:16:52;;;;;;;5.47;2.08;;;18.40;99.90;;;;;;4982002;28;20043;-74
2022/09/13 07:19:25;;;;;;;10.48;2.38;;;18.30;99.90;;;;;;4962281;28;20031;-74
2022/09/13 07:21:51;;;;;;;7.60;2.03;;;18.40;99.90;;;;;;4986240;28;20034;-74
2022/09/13 07:24:18;;;;;;;3.88;1.90;;;18.40;99.90;;;;;;4988219;28;20410;-74
2022/09/13 07:26:45;;;;;;;5.43;1.85;;;18.40;99.90;;;;;;4979183;28;20081;-74
2022/09/13 07:29:15;;;;;;;7.20;2.00;;;18.40;99.90;;;;;;4979270;28;20050;-74
2022/09/13 07:31:43;;;;;;;8.00;2.30;;;18.50;99.90;;;;;;4985433;28;20117;-74
2022/09/13 07:34:20;;;;;;;9.35;2.30;;;18.50;99.90;;;;;;4982431;28;20411;-74
2022/09/13 07:36:46;;;;;;;6.45;2.03;;;18.50;99.90;;;;;;4978693;28;20034;-74
2022/09/13 07:39:13;;;;;;;8.35;1.77;;;18.60;99.90;;;;;;4984898;28;20038;-74
2022/09/13 07:41:39;;;;;;;7.07;2.08;;;18.60;99.90;;;;;;4981095;28;20042;-74
2022/09/13 07:44:06;;;;;;;3.85;1.65;;;18.60;99.90;;;;;;4980829;28;20045;-74
2022/09/13 07:46:38;;;;;;;8.45;2.33;;;18.70;99.90;;;;;;4974883;28;20081;-74
2022/09/13 07:49:05;;;;;;;10.43;2.20;;;18.70;99.90;;;;;;4967507;28;20038;-74
2022/09/13 07:51:32;;;;;;;9.32;1.90;;;18.70;99.90;;;;;;4981806;28;20046;-74
2022/09/13 07:54:05;;;;;;;7.05;1.70;;;18.80;99.90;;;;;;4976652;28;20076;-74
2022/09/13 07:56:36;;;;;;;4.40;1.75;;;18.90;99.90;;;;;;4966521;28;20126;-74
2022/09/13 07:59:05;;;;;;;3.90;2.00;;;18.90;99.90;;;;;;4975345;28;20041;-75
2022/09/13 08:01:41;;;;;;;8.88;2.10;;;19.00;99.90;;;;;;4982834;28;20122;-75
2022/09/13 08:04:12;;;;;;;6.82;1.60;;;19.10;99.90;;;;;;4980500;28;20042;-75
2022/09/13 08:06:39;;;;;;;8.00;1.70;;;19.20;99.90;;;;;;4976699;28;20047;-75
2022/09/13 08:09:07;;;;;;;6.05;1.30;;;19.30;99.90;;;;;;4976494;28;20050;-75
2022/09/13 08:11:38;;;;;;;7.47;1.67;;;19.30;99.90;;;;;;4979165;28;20745;-76
2022/09/13 08:14:07;;;;;;;6.00;1.50;;;19.30;99.90;;;;;;4981446;28;20411;-75
2022/09/13 08:16:33;;;;;;;6.88;1.55;;;19.40;99.90;;;;;;4986769;28;20084;-75
2022/09/13 08:19:01;;;;;;;7.15;1.55;;;19.50;99.90;;;;;;4980331;28;20119;-75
2022/09/13 08:21:37;;;;;;;3.58;1.50;;;19.60;99.90;;;;;;4984131;28;20093;-75
2022/09/13 08:24:04;;;;;;;5.15;1.15;;;19.60;99.90;;;;;;4986845;28;20053;-75
2022/09/13 08:26:32;;;;;;;7.32;1.40;;;19.70;99.90;;;;;;4962017;28;20078;-74
2022/09/13 08:29:00;;;;;;;8.45;1.10;;;19.80;99.90;;;;;;4957740;28;20085;-74
2022/09/13 08:31:27;;;;;;;6.75;1.10;;;19.70;99.90;;;;;;4984989;28;20058;-74
2022/09/13 08:33:54;;;;;;;9.68;1.83;;;19.70;99.90;;;;;;4981371;28;20091;-74
2022/09/13 08:36:22;;;;;;;6.18;1.20;;;19.70;99.90;;;;;;4983898;28;20034;-75
2022/09/13 08:38:53;;;;;;;5.30;1.33;;;19.80;99.90;;;;;;4990686;28;20509;-75
2022/09/13 08:41:46;;;;;;;6.90;1.30;;;19.80;99.90;;;;;;4980663;28;20068;-75
2022/09/13 08:44:32;;;;;;;6.82;1.35;;;19.80;99.90;;;;;;4985253;28;20069;-75
2022/09/13 08:47:25;;;;;;;6.30;1.15;;;19.90;99.90;;;;;;4977248;28;20042;-74
2022/09/13 08:50:03;;;;;;;7.18;1.20;;;20.10;99.90;;;;;;4980225;28;20039;-75
2022/09/13 08:52:35;;;;;;;9.38;1.52;;;20.30;99.90;;;;;;4969066;28;20065;-76
2022/09/13 08:55:12;;;;;;;4.50;1.20;;;20.30;99.90;;;;;;4980724;28;20041;-74
2022/09/13 08:57:47;;;;;;;7.50;1.25;;;20.30;99.90;;;;;;4981411;28;20066;-72
2022/09/13 09:00:27;;;;;;;4.53;1.40;;;20.40;99.90;;;;;;4984223;28;20046;-74
2022/09/13 09:03:23;;;;;;;7.55;1.30;;;20.30;99.90;;;;;;4951305;28;20069;-74
2022/09/13 09:05:50;;;;;;;5.13;1.10;;;20.20;99.90;;;;;;4988310;28;20073;-75
2022/09/13 09:08:37;;;;;;;5.03;1.10;;;20.30;99.90;;;;;;4976836;28;20045;-74
2022/09/13 09:11:20;;;;;;;6.80;1.30;;;20.50;99.90;;;;;;4982378;28;20101;-74
2022/09/13 09:13:51;;;;;;;4.40;0.95;;;20.60;99.90;;;;;;4959252;28;20061;-74
2022/09/13 09:16:32;;;;;;;6.63;1.15;;;20.70;99.90;;;;;;4975749;28;20046;-75
2022/09/13 09:19:18;;;;;;;9.63;1.27;;;20.60;99.90;;;;;;4971667;28;20499;-77
2022/09/13 09:21:47;;;;;;;3.05;0.90;;;20.60;99.90;;;;;;4982628;28;20096;-74
2022/09/13 09:24:22;;;;;;;5.78;1.10;;;20.50;99.90;;;;;;4980764;28;20058;-74
2022/09/13 09:26:48;;;;;;;8.10;1.30;;;20.40;99.90;;;;;;4983292;28;20046;-74
2022/09/13 09:29:20;;;;;;;4.53;0.90;;;20.40;99.90;;;;;;4983080;28;20053;-74
2022/09/13 09:32:08;;;;;;;4.50;0.98;;;20.60;99.90;;;;;;4963934;28;20042;-74
2022/09/13 09:35:11;;;;;;;2.15;0.70;;;20.60;99.90;;;;;;4985025;28;20050;-75
2022/09/13 09:37:40;;;;;;;8.80;0.80;;;20.80;99.90;;;;;;4971443;28;20050;-74
2022/09/13 09:40:11;;;;;;;3.80;0.80;;;20.90;99.90;;;;;;4984083;28;20138;-75
2022/09/13 09:42:45;;;;;;;5.15;1.00;;;21.00;99.90;;;;;;4965797;28;20035;-74
2022/09/13 09:45:33;;;;;;;5.05;0.70;;;21.00;99.90;;;;;;4976915;28;20578;-74
2022/09/13 09:48:05;;;;;;;2.58;0.88;;;21.00;99.90;;;;;;4973952;28;20048;-74
2022/09/13 09:50:40;;;;;;;2.92;0.90;;;21.10;99.90;;;;;;4987109;28;20042;-74
2022/09/13 09:53:25;;;;;;;2.17;0.73;;;21.20;99.90;;;;;;4980206;28;20038;-74
2022/09/13 09:56:14;;;;;;;2.38;1.02;;;21.20;99.90;;;;;;4984193;28;20053;-74
2022/09/13 09:58:45;;;;;;;2.10;0.70;;;21.30;99.90;;;;;;4984423;28;20053;-74
2022/09/13 10:01:36;;;;;;;4.25;0.80;;;21.40;99.90;;;;;;4970107;28;20053;-74
2022/09/13 10:04:04;;;;;;;2.70;0.60;;;21.50;99.90;;;;;;4981684;28;20052;-74
2022/09/13 10:06:31;;;;;;;3.85;0.77;;;21.50;99.90;;;;;;4981301;28;20054;-74
2022/09/13 10:09:03;;;;;;;4.47;1.17;;;21.70;99.90;;;;;;4983268;28;20043;-74
2022/09/13 10:11:38;;;;;;;3.40;1.02;;;21.80;99.90;;;;;;4982109;28;20046;-74
2022/09/13 10:14:04;;;;;;;4.70;0.90;;;21.90;99.90;;;;;;4982261;28;20042;-75
2022/09/13 10:16:30;;;;;;;4.68;1.17;;;21.90;99.90;;;;;;4990753;28;20513;-74
2022/09/13 10:19:23;;;;;;;4.13;0.90;;;22.00;99.90;;;;;;4989171;28;20039;-74
2022/09/13 10:22:10;;;;;;;4.47;0.73;;;21.80;99.90;;;;;;4981444;28;20042;-75
2022/09/13 10:24:35;;;;;;;3.90;0.82;;;21.80;99.90;;;;;;4971090;28;20117;-74
2022/09/13 10:27:03;;;;;;;9.25;1.30;;;22.00;99.90;;;;;;4982908;28;20178;-74
2022/09/13 10:29:30;;;;;;;3.67;0.80;;;22.30;99.90;;;;;;4981725;28;20050;-74
2022/09/13 10:31:57;;;;;;;5.35;0.80;;;22.50;99.90;;;;;;4986605;28;20129;-74
2022/09/13 10:34:29;;;;;;;2.67;0.73;;;22.50;99.90;;;;;;4952787;28;20054;-75
2022/09/13 10:36:58;;;;;;;;;;;22.50;99.90;;;;;;4985207;28;20625;-75
2022/09/13 10:39:25;;;;;;;4.10;0.75;;;22.40;99.90;;;;;;4978606;28;19918;-74
2022/09/13 10:42:01;;;;;;;4.13;0.80;;;22.30;99.90;;;;;;4964286;28;20177;-74
2022/09/13 10:44:35;;;;;;;4.45;0.90;;;22.40;99.90;;;;;;4978860;28;20053;-74
2022/09/13 10:47:05;;;;;;;4.30;0.93;;;22.50;99.90;;;;;;4968790;28;20055;-74
2022/09/13 10:49:43;;;;;;;1.90;0.70;;;22.60;99.90;;;;;;4966435;28;20165;-74
2022/09/13 10:52:22;;;;;;;4.85;0.93;;;22.80;99.90;;;;;;4983912;28;20053;-74
2022/09/13 10:54:48;;;;;;;3.60;0.98;;;23.10;99.90;;;;;;4979469;28;20054;-74
2022/09/13 10:57:33;;;;;;;3.67;0.80;;;23.20;99.90;;;;;;4985430;28;20046;-74
2022/09/13 10:59:59;;;;;;;3.55;0.73;;;23.30;99.90;;;;;;4984289;28;20444;-74
2022/09/13 11:02:57;;;;;;;3.28;0.75;;;23.30;99.90;;;;;;4966308;28;20049;-72
2022/09/13 11:05:37;;;;;;;4.38;0.90;;;23.30;99.90;;;;;;4965695;28;20058;-72
2022/09/13 11:08:05;;;;;;;5.07;0.85;;;23.40;99.90;;;;;;4980110;28;20047;-72
2022/09/13 11:10:34;;;;;;;4.13;0.82;;;23.50;99.90;;;;;;4981417;28;20384;-72
2022/09/13 11:13:32;;;;;;;5.00;0.70;;;23.40;99.90;;;;;;4978478;28;20065;-72
2022/09/13 11:16:16;;;;;;;12.82;1.20;;;23.50;99.90;;;;;;4978423;28;20078;-72
2022/09/13 11:18:41;;;;;;;2.88;1.00;;;23.60;99.90;;;;;;4980569;28;20042;-72
2022/09/13 11:21:35;;;;;;;1.75;0.65;;;23.70;99.90;;;;;;4991057;28;20038;-72
2022/09/13 11:24:09;;;;;;;4.38;1.13;;;23.90;99.30;;;;;;4984100;28;20057;-72
2022/09/13 11:26:48;;;;;;;5.18;1.00;;;23.90;99.80;;;;;;4981140;28;20051;-72
2022/09/13 11:29:36;;;;;;;7.05;1.08;;;24.00;99.30;;;;;;4982072;28;20406;-72
2022/09/13 11:32:17;;;;;;;3.03;0.70;;;24.10;99.60;;;;;;4982953;28;20042;-72
2022/09/13 11:34:50;;;;;;;2.55;0.70;;;24.20;98.90;;;;;;4986726;28;20050;-72
2022/09/13 11:37:52;;;;;;;4.88;0.70;;;24.20;98.10;;;;;;4980678;28;20099;-72
2022/09/13 11:40:27;;;;;;;4.45;1.05;;;24.10;97.40;;;;;;4969469;28;20129;-72
2022/09/13 11:43:20;;;;;;;7.43;0.98;;;24.00;98.50;;;;;;4979587;28;20692;-72
2022/09/13 11:46:13;;;;;;;6.50;0.85;;;24.10;99.00;;;;;;4985476;28;20038;-72
2022/09/13 11:48:57;;;;;;;3.60;0.80;;;24.30;97.70;;;;;;4982117;28;20046;-72
2022/09/13 11:51:39;;;;;;;4.43;1.20;;;24.50;96.60;;;;;;4978169;28;20042;-71
2022/09/13 11:54:18;;;;;;;5.38;1.00;;;24.70;96.90;;;;;;4981230;28;20082;-71
2022/09/13 11:57:12;;;;;;;2.28;0.75;;;24.90;94.00;;;;;;4986914;28;20042;-72
2022/09/13 11:59:52;;;;;;;6.40;1.00;;;24.90;93.80;;;;;;4980287;28;20038;-72
2022/09/13 12:02:31;;;;;;;7.10;1.10;;;24.90;93.40;;;;;;4985060;28;20039;-71
2022/09/13 12:05:20;;;;;;;4.03;0.93;;;24.90;93.10;;;;;;4983909;28;20042;-74
2022/09/13 12:07:48;;;;;;;6.18;1.00;;;24.80;93.60;;;;;;4979560;28;20130;-73
2022/09/13 12:10:24;;;;;;;4.78;1.00;;;24.90;94.30;;;;;;4968503;28;20054;-72
2022/09/13 12:12:51;;;;;;;4.82;0.80;;;24.90;92.50;;;;;;4976421;28;20130;-71
2022/09/13 12:15:39;;;;;;;4.78;0.80;;;24.90;92.80;;;;;;4978565;28;20054;-71
2022/09/13 12:18:25;;;;;;;3.78;0.82;;;25.00;93.20;;;;;;4978545;28;20038;-72
2022/09/13 12:21:02;;;;;;;5.57;0.95;;;25.10;92.40;;;;;;4981692;28;20042;-72
2022/09/13 12:23:34;;;;;;;4.22;0.98;;;25.00;92.90;;;;;;4985408;28;20038;-72
2022/09/13 12:26:20;;;;;;;4.60;0.80;;;25.20;92.90;;;;;;4983821;28;20825;-71
2022/09/13 12:28:52;;;;;;;5.05;1.15;;;25.40;92.90;;;;;;4978245;28;20042;-71
2022/09/13 12:31:29;;;;;;;9.88;1.15;;;25.60;92.80;;;;;;4982007;28;20038;-72
2022/09/13 12:33:56;;;;;;;4.10;0.80;;;25.80;92.30;;;;;;4977862;28;20050;-72
2022/09/13 12:37:14;;;;;;;6.15;0.95;;;26.00;91.90;;;;;;4979413;28;20065;-72
2022/09/13 12:40:08;;;;;;;7.65;1.05;;;26.00;91.00;;;;;;4930498;29;20043;-72
2022/09/13 12:42:39;;;;;;;6.78;0.88;;;26.00;86.60;;;;;;4965202;28;20046;-72
2022/09/13 12:45:23;;;;;;;5.05;1.35;;;26.00;89.90;;;;;;4981469;28;20034;-71
2022/09/13 12:48:07;;;;;;;4.28;0.95;;;26.10;88.30;;;;;;4982041;28;20042;-72
2022/09/13 12:50:43;;;;;;;8.25;0.90;;;26.30;89.80;;;;;;4979870;28;20046;-72
2022/09/13 12:53:08;;;;;;;5.82;1.10;;;26.40;86.70;;;;;;4980730;28;20038;-71
2022/09/13 12:55:45;;;;;;;3.42;1.10;;;26.60;85.20;;;;;;4977693;28;20291;-72
2022/09/13 12:58:46;;;;;;;3.92;0.90;;;26.70;82.40;;;;;;4963982;28;20034;-73
2022/09/13 13:01:19;;;;;;;3.67;0.90;;;26.90;82.60;;;;;;4966907;28;20078;-72
2022/09/13 13:04:02;;;;;;;6.15;1.02;;;26.70;82.40;;;;;;4977819;28;20038;-72
2022/09/13 13:06:32;;;;;;;6.10;1.20;;;26.40;83.50;;;;;;4979852;28;20034;-71
2022/09/13 13:09:03;;;;;;;5.07;0.93;;;26.50;84.50;;;;;;4976972;28;20042;-72